Bentonville, AR (72712)

2:31 PM CDT on September 01, 2014 (GMT -0500)
KARBENTO2 | Change Station
CLOSE
Current Station
Personal Weather Station
Location: Bentonville, AR
Elevation: 1289 ft
Nearby Weather Stations

Elev 1289 ft 36.36 °N, 94.20 °W | Updated 3 seconds ago

Scattered Clouds
Scattered Clouds
85.5 °F
Feels Like 92 °F
N
12.5
Wind Variable Wind from SSE
Gusts 13.1 mph

Today
High -- | Low -- °F
--% Chance of Precip.
Yesterday
High -- | Low -- °F
Precip. -- in
6:48 AM 7:44 PM
Waxing Crescent, 43% visible
Pressure 29.94 in
Visibility 10.0 miles
Clouds Scattered Clouds 3400 ft
Heat Index 92 °F
Dew Point 72 °F
Humidity 65%
Rainfall 0.96 in
Snow Depth Not available.
UV 8 out of 12
Pollen 10.90 out of 12
Air Quality Not available.
Flu Activity Not available.
METAR KVBT 011915Z AUTO 18013G17KT 10SM SCT034 30/21 A2994 RMK AO1

More Conditions Fewer Conditions

Pressure 29.94 in
Visibility 10.0 miles
Clouds Scattered Clouds 3400 ft
Heat Index 92 °F
Dew Point 72 °F
Humidity 65%
Rainfall 0.96 in
Snow Depth Not available.
UV 8 out of 12
Pollen 10.90 out of 12
Air Quality Not available.
Flu Activity Not available.
METAR KVBT 011915Z AUTO 18013G17KT 10SM SCT034 30/21 A2994 RMK AO1

More Conditions Fewer Conditions

10-Day Weather Forecast

Almanac

Astronomy

Sep. 01, 2014 Rise Set
Actual Time 6:48 AM CDT 7:44 PM CDT
Civil Twilight 6:21 AM CDT 8:10 PM CDT
Nautical Twilight 5:50 AM CDT 8:42 PM CDT
Astronomical Twilight 5:18 AM CDT 9:14 PM CDT
Moon 1:23 PM CDT 11:58 PM CDT
Length of Visible Light 13h 49m
Length of Day
12h 56m
Tomorrow will be 2m 14s shorter.
Waxing Crescent, 43% of the Moon is Illuminated
Today
Waxing Crescent
Sep 2
First Quarter
Sep 8
Full
Sep 15
Last Quarter
Sep 24
New

Today's Extremes

State Highs State Lows

Community

WunderPhotos

Upload Photos

1,749,385 photos uploaded!

WunderBlogs® & News

Nearby

Snow Depth

Station Depth Elevation
No new snow has been reported.

Earthquake Activity

City Distance Mag. Time & Date
No recent earthquake activity has been reported nearby.
Minimum magnitude displayed is 2.5.

Coastal Water Temperatures

Place Temperature
No Stations Reporting

Nearby Weather Stations